createdAt,value
2022-10-17T05:31:05.232Z,11.63
2022-10-17T05:34:09.055Z,11.38
2022-10-17T05:37:13.465Z,15.50
2022-10-17T05:40:15.431Z,14.48
2022-10-17T05:43:17.276Z,14.05
2022-10-17T05:46:18.957Z,18.23
2022-10-17T05:49:32.614Z,14.85
2022-10-17T05:52:45.126Z,19.05
2022-10-17T05:55:56.419Z,17.25
2022-10-17T05:59:01.028Z,36.25
2022-10-17T06:02:03.457Z,24.10
2022-10-17T06:05:05.942Z,22.45
2022-10-17T06:08:08.084Z,19.42
2022-10-17T06:11:11.741Z,27.88
2022-10-17T06:49:23.707Z,19.30
2022-10-17T06:52:25.522Z,22.98
2022-10-17T06:55:27.478Z,22.60
2022-10-17T06:58:30.623Z,20.33
2022-10-17T07:01:34.410Z,34.10
2022-10-17T07:04:37.490Z,31.85
2022-10-17T07:07:44.179Z,25.15
2022-10-17T07:10:47.661Z,14.38
2022-10-17T07:13:49.873Z,35.47
2022-10-17T07:16:51.698Z,31.35
2022-10-17T07:19:53.806Z,28.05
2022-10-17T07:22:55.561Z,26.23
2022-10-17T07:26:01.288Z,23.13
2022-10-17T07:29:03.510Z,13.20
2022-10-17T07:32:08.938Z,13.48
2022-10-17T07:35:11.640Z,11.43
2022-10-17T07:38:13.960Z,12.68
2022-10-17T07:41:19.286Z,9.52
2022-10-17T07:44:23.446Z,16.55
2022-10-17T07:47:25.853Z,25.73
2022-10-17T07:50:27.809Z,14.25
2022-10-17T07:53:29.944Z,18.95
2022-10-17T07:56:34.669Z,19.83
2022-10-17T07:59:39.419Z,25.83
2022-10-17T08:02:42.611Z,16.60
2022-10-17T08:05:45.056Z,23.13
2022-10-17T08:08:48.026Z,10.98
2022-10-17T08:11:50.684Z,7.30
2022-10-17T08:14:53.638Z,13.48
2022-10-17T08:17:57.880Z,10.77
2022-10-17T08:21:01.472Z,12.10
2022-10-17T08:24:03.814Z,12.15
2022-10-17T08:27:11.584Z,11.85
2022-10-17T08:30:15.218Z,13.77
2022-10-17T08:33:17.501Z,9.73
2022-10-17T08:36:20.185Z,13.23
2022-10-17T08:39:27.415Z,14.35
2022-10-17T08:42:50.349Z,12.32
2022-10-17T08:46:00.590Z,9.98
2022-10-17T08:49:08.727Z,20.38
2022-10-17T08:52:43.144Z,6.68
2022-10-17T08:55:47.866Z,8.85
2022-10-17T08:58:50.263Z,8.45
2022-10-17T09:02:32.385Z,8.25
2022-10-17T09:05:49.461Z,19.48
2022-10-17T09:09:11.184Z,9.18
2022-10-17T09:12:41.713Z,8.57
2022-10-17T09:16:25.597Z,17.60
2022-10-17T09:19:33.919Z,11.23
2022-10-17T09:22:46.962Z,19.38
2022-10-17T09:25:52.633Z,7.63
2022-10-17T09:28:59.342Z,7.95
2022-10-17T09:32:09.062Z,8.00
2022-10-17T09:35:14.800Z,7.25
2022-10-17T09:38:20.153Z,15.75
2022-10-17T09:44:58.781Z,9.73
2022-10-17T09:48:11.749Z,7.10
2022-10-17T09:51:25.384Z,6.40
2022-10-17T09:54:39.397Z,12.63
2022-10-17T09:58:02.813Z,6.25
2022-10-17T10:01:21.098Z,6.75
2022-10-17T10:04:30.561Z,8.30
2022-10-17T10:07:40.511Z,5.80
2022-10-17T10:10:59.536Z,3.67
2022-10-17T10:14:33.610Z,10.55
2022-10-17T10:17:42.197Z,4.97
2022-10-17T10:20:47.119Z,8.07
2022-10-17T10:24:06.477Z,6.25
2022-10-17T10:27:15.971Z,7.70
2022-10-17T10:30:21.917Z,5.05
2022-10-17T10:33:27.652Z,8.50
2022-10-17T10:37:04.539Z,4.60
2022-10-17T10:40:37.526Z,9.70
2022-10-17T10:43:49.683Z,6.60
2022-10-17T10:47:08.031Z,11.73
2022-10-17T10:50:40.576Z,6.40
2022-10-17T10:54:00.052Z,7.35
2022-10-17T10:57:07.340Z,5.45
2022-10-17T11:00:18.215Z,10.55
2022-10-17T11:03:31.391Z,8.35
2022-10-17T11:06:37.485Z,4.55
2022-10-17T11:10:17.850Z,13.18
2022-10-17T11:13:28.871Z,6.22
2022-10-17T11:16:40.112Z,6.07
2022-10-17T11:19:53.279Z,5.90
2022-10-17T11:23:10.735Z,5.45
2022-10-17T11:26:27.041Z,9.73
2022-10-17T11:29:33.251Z,11.60
2022-10-17T11:32:44.126Z,7.95
2022-10-17T11:35:49.964Z,7.88
2022-10-17T11:39:04.059Z,5.45
2022-10-17T11:42:12.736Z,8.05
2022-10-17T11:45:19.790Z,8.30
2022-10-17T11:48:28.460Z,14.60
2022-10-17T11:55:05.453Z,11.90
2022-10-17T11:58:37.750Z,9.85
2022-10-17T12:01:46.956Z,11.65
2022-10-17T12:05:21.836Z,8.25
2022-10-17T12:08:30.459Z,5.33
2022-10-17T12:11:55.327Z,7.78
2022-10-17T12:15:13.369Z,7.60
2022-10-17T12:18:17.377Z,12.85
2022-10-17T12:21:19.341Z,14.10
2022-10-17T12:24:43.433Z,6.53
2022-10-17T12:27:47.666Z,4.63
2022-10-17T12:30:56.272Z,6.57
2022-10-17T12:34:01.094Z,7.63
2022-10-17T12:40:24.827Z,5.18
2022-10-17T12:43:27.805Z,5.43
2022-10-17T12:46:46.949Z,4.50
2022-10-17T12:49:53.084Z,10.68
2022-10-17T12:53:05.569Z,8.40
2022-10-17T12:56:07.685Z,7.07
2022-10-17T12:59:24.103Z,13.60
2022-10-17T13:02:29.251Z,5.22
2022-10-17T13:05:34.902Z,9.52
2022-10-17T13:08:42.910Z,6.15
2022-10-17T13:11:44.930Z,6.72
2022-10-17T13:14:47.949Z,4.25
2022-10-17T13:17:56.896Z,3.92
2022-10-17T13:21:06.430Z,6.47
2022-10-17T13:24:29.483Z,4.90
2022-10-17T13:27:33.700Z,9.18
2022-10-17T13:30:36.968Z,14.05
2022-10-17T13:33:40.546Z,5.93
2022-10-17T13:36:48.543Z,8.35
2022-10-17T13:39:55.854Z,7.55
2022-10-17T13:43:02.295Z,6.25
2022-10-17T13:46:25.615Z,5.45
2022-10-17T13:49:44.296Z,4.80
2022-10-17T13:52:46.055Z,11.40
2022-10-17T13:56:27.957Z,5.88
2022-10-17T13:59:49.185Z,4.93
2022-10-17T14:02:51.004Z,8.65
2022-10-17T14:06:28.216Z,5.95
2022-10-17T14:09:32.073Z,11.07
2022-10-17T14:12:34.477Z,3.67
2022-10-17T14:15:38.289Z,7.18
2022-10-17T14:18:40.701Z,10.23
2022-10-17T14:21:44.624Z,3.13
2022-10-17T14:24:47.365Z,3.67
2022-10-17T14:28:13.944Z,5.85
2022-10-17T14:31:15.889Z,3.90
2022-10-17T14:34:25.014Z,9.07
2022-10-17T14:37:36.105Z,8.73
2022-10-17T14:40:37.933Z,5.22
2022-10-17T14:43:40.010Z,8.30
2022-10-17T14:46:50.498Z,3.63
2022-10-17T14:50:05.517Z,5.95
2022-10-17T14:53:21.583Z,9.52
2022-10-17T14:56:27.411Z,7.10
2022-10-17T14:59:53.281Z,4.20
2022-10-17T15:02:53.205Z,5.22
2022-10-17T15:05:55.633Z,11.87
2022-10-17T15:08:58.011Z,5.53
2022-10-17T15:12:02.741Z,6.50
2022-10-17T15:15:04.767Z,6.50
2022-10-17T15:18:07.813Z,8.88
2022-10-17T15:21:33.679Z,6.07
2022-10-17T15:24:40.081Z,5.78
2022-10-17T15:27:42.250Z,5.55
2022-10-17T15:30:43.954Z,6.38
2022-10-17T15:33:46.490Z,13.13
2022-10-17T15:36:51.535Z,7.43
2022-10-17T15:39:55.148Z,11.13
2022-10-17T15:42:57.768Z,6.75
2022-10-17T15:46:00.693Z,12.05
2022-10-17T15:49:05.038Z,5.50
2022-10-17T15:52:08.876Z,23.20
2022-10-17T15:55:11.410Z,8.95
2022-10-17T15:58:16.409Z,10.10
